Atwood, Alabama
Current Conditions -  °F | °C
As of 4:56 AM on Friday 31 Oct 2014 (Local Time) from K1M4 Reporting Station
Light Rain Light Rain  
Wind Chill: 46°   Ceiling: 5500
Heat Index: 46°   Visibility: 10mi
Dew Point: 44°   Wind: 0mph
Humidity: 93%   Direction: NA
Pressure: 30"   Gusts: NA
Location:  34.3479°N, 87.9692°W
Report Text: K1M4 310956Z AUTO 00000KT 10SM -RA BKN055 08/07 A3000 RMK AO2 T00770066 RAB16 P0003 SLP171
Loading
Personal Weather Stations






























Interactive Weather Map New forecast layout! Learn more

10-Day Weather Forecast

Advertisements
Track Severe Weather on mobile